createdAt,value
2018-06-28T00:00:24.098Z,93.04
2018-06-28T00:02:58.186Z,93.89
2018-06-28T00:05:32.167Z,92.93
2018-06-28T00:08:06.371Z,94.63
2018-06-28T00:10:40.516Z,95.07
2018-06-28T00:13:14.621Z,94.85
2018-06-28T00:15:48.944Z,95.26
2018-06-28T00:18:22.980Z,94.42
2018-06-28T00:20:57.413Z,94.79
2018-06-28T00:23:31.442Z,94.14
2018-06-28T00:26:05.466Z,93.51
2018-06-28T00:28:39.467Z,94.30
2018-06-28T00:31:13.393Z,95.02
2018-06-28T00:33:47.474Z,95.48
2018-06-28T00:36:21.445Z,94.80
2018-06-28T00:38:55.529Z,94.93
2018-06-28T00:41:29.437Z,94.46
2018-06-28T00:44:03.587Z,94.44
2018-06-28T00:46:37.780Z,91.40
2018-06-28T00:49:11.953Z,91.07
2018-06-28T00:51:45.833Z,92.39
2018-06-28T00:54:20.126Z,92.07
2018-06-28T00:56:54.247Z,92.75
2018-06-28T00:59:28.260Z,94.51
2018-06-28T01:02:02.212Z,95.55
2018-06-28T01:04:36.139Z,96.27
2018-06-28T01:07:11.167Z,96.45
2018-06-28T01:09:45.311Z,96.48
2018-06-28T01:12:19.284Z,96.42
2018-06-28T01:14:57.282Z,97.12
2018-06-28T01:17:31.328Z,96.85
2018-06-28T01:20:06.812Z,97.04
2018-06-28T01:22:40.767Z,97.83
2018-06-28T01:25:14.798Z,98.49
2018-06-28T01:27:48.788Z,98.13
2018-06-28T01:30:22.777Z,98.64
2018-06-28T01:32:56.769Z,98.10
2018-06-28T01:35:30.774Z,98.39
2018-06-28T01:38:04.845Z,96.00
2018-06-28T01:40:38.977Z,95.98
2018-06-28T01:43:37.205Z,95.43
2018-06-28T01:46:11.345Z,94.17
2018-06-28T01:48:45.315Z,94.67
2018-06-28T01:51:19.366Z,95.69
2018-06-28T01:53:53.284Z,96.27
2018-06-28T01:56:27.328Z,94.67
2018-06-28T01:59:01.180Z,94.83
2018-06-28T02:01:35.239Z,93.32
2018-06-28T02:04:09.252Z,93.62
2018-06-28T02:06:43.300Z,93.45
2018-06-28T02:09:17.169Z,94.44
2018-06-28T02:11:51.241Z,94.50
2018-06-28T02:14:25.197Z,94.85
2018-06-28T02:16:59.094Z,94.16
2018-06-28T02:19:33.179Z,94.77
2018-06-28T02:22:07.186Z,95.35
2018-06-28T02:24:41.103Z,95.42
2018-06-28T02:27:15.195Z,95.96
2018-06-28T02:29:50.607Z,93.54
2018-06-28T02:32:24.489Z,93.83
2018-06-28T02:34:59.071Z,94.47
2018-06-28T02:37:33.477Z,94.27
2018-06-28T02:40:07.633Z,93.86
2018-06-28T02:42:41.767Z,94.60
2018-06-28T02:45:15.827Z,96.09
2018-06-28T02:47:49.875Z,96.42
2018-06-28T02:50:23.803Z,96.73
2018-06-28T02:52:57.821Z,97.01
2018-06-28T02:55:31.906Z,96.01
2018-06-28T02:58:05.989Z,94.01
2018-06-28T03:00:40.033Z,93.77
2018-06-28T03:03:14.111Z,93.29
2018-06-28T03:05:48.237Z,94.39
2018-06-28T03:08:22.342Z,94.09
2018-06-28T03:10:56.308Z,94.01
2018-06-28T03:13:30.385Z,95.03
2018-06-28T03:16:04.411Z,95.44
2018-06-28T03:18:38.283Z,95.67
2018-06-28T03:21:12.573Z,95.64
2018-06-28T03:23:46.684Z,94.22
2018-06-28T03:26:20.569Z,95.94
2018-06-28T03:28:54.718Z,95.38
2018-06-28T03:31:28.680Z,95.45
2018-06-28T03:34:02.701Z,96.28
2018-06-28T03:36:37.002Z,95.51
2018-06-28T03:39:12.804Z,95.29
2018-06-28T03:41:46.713Z,94.29
2018-06-28T03:44:20.751Z,94.94
2018-06-28T03:46:54.600Z,94.73
2018-06-28T03:49:28.721Z,94.67
2018-06-28T03:52:02.650Z,95.04
2018-06-28T03:54:36.715Z,95.53
2018-06-28T03:57:10.706Z,94.95
2018-06-28T03:59:44.846Z,95.33
2018-06-28T04:02:18.757Z,94.66
2018-06-28T04:04:52.701Z,93.95
2018-06-28T04:07:26.848Z,94.06
2018-06-28T04:10:00.861Z,94.72
2018-06-28T04:12:34.850Z,94.65
2018-06-28T04:15:09.168Z,93.20
2018-06-28T04:17:43.194Z,94.25
2018-06-28T04:20:17.163Z,95.18
2018-06-28T04:22:51.329Z,95.30
2018-06-28T04:25:25.240Z,94.68
2018-06-28T04:27:59.375Z,95.02
2018-06-28T04:30:33.462Z,93.86
2018-06-28T04:33:07.522Z,94.65
2018-06-28T04:35:41.487Z,92.94
2018-06-28T04:38:15.876Z,93.59
2018-06-28T04:40:50.175Z,94.72
2018-06-28T04:43:24.216Z,95.91
2018-06-28T04:45:58.416Z,96.28
2018-06-28T04:55:35.034Z,94.03
2018-06-28T05:13:35.125Z,96.27
2018-06-28T05:16:09.137Z,95.58
2018-06-28T05:18:43.056Z,95.14
2018-06-28T05:21:16.969Z,93.90
2018-06-28T05:23:50.825Z,93.72
2018-06-28T05:26:24.821Z,94.62
2018-06-28T05:28:58.938Z,93.66
2018-06-28T05:31:32.877Z,94.22
2018-06-28T05:34:06.701Z,93.50
2018-06-28T05:36:40.684Z,94.19
2018-06-28T05:39:14.669Z,94.99
2018-06-28T05:41:48.633Z,95.22
2018-06-28T05:44:22.818Z,94.56
2018-06-28T05:46:56.647Z,95.11
2018-06-28T05:49:30.960Z,94.78
2018-06-28T05:52:05.042Z,94.88
2018-06-28T05:54:38.829Z,94.56
2018-06-28T05:57:12.802Z,92.04
2018-06-28T05:59:46.924Z,91.48
2018-06-28T06:02:20.706Z,90.93
2018-06-28T06:04:54.583Z,92.98
2018-06-28T06:07:28.506Z,93.07
2018-06-28T06:10:02.644Z,92.40
2018-06-28T06:12:36.503Z,93.06
2018-06-28T06:15:10.541Z,93.95
2018-06-28T06:17:44.453Z,94.45
2018-06-28T06:55:23.728Z,93.13
2018-06-28T06:57:57.705Z,92.77
2018-06-28T07:00:31.731Z,92.61
2018-06-28T07:03:05.670Z,92.49
2018-06-28T07:05:39.644Z,92.69
2018-06-28T07:08:13.496Z,92.76
2018-06-28T07:10:47.493Z,93.11
2018-06-28T07:13:21.377Z,92.93
2018-06-28T07:15:55.298Z,92.32
2018-06-28T07:18:29.250Z,92.66
2018-06-28T07:21:03.340Z,92.01
2018-06-28T07:23:37.307Z,92.02
2018-06-28T07:26:11.362Z,92.49
2018-06-28T07:28:45.392Z,92.21
2018-06-28T07:31:19.401Z,92.42
2018-06-28T07:33:53.704Z,91.40
2018-06-28T07:36:27.507Z,91.83
2018-06-28T07:39:01.510Z,92.51
2018-06-28T07:41:35.451Z,92.71
2018-06-28T07:44:09.845Z,93.28
2018-06-28T07:46:43.721Z,93.97
2018-06-28T07:49:17.823Z,92.83
2018-06-28T07:51:51.833Z,93.37
2018-06-28T07:54:25.762Z,93.08
2018-06-28T07:56:59.918Z,93.69
2018-06-28T07:59:33.874Z,92.38
2018-06-28T08:02:07.917Z,92.79
2018-06-28T08:04:41.827Z,92.96
2018-06-28T08:07:15.781Z,93.22
2018-06-28T08:09:49.728Z,94.33
2018-06-28T08:12:23.759Z,93.83
2018-06-28T08:14:57.574Z,93.39
2018-06-28T08:17:31.656Z,93.17
2018-06-28T08:20:06.122Z,93.60
2018-06-28T08:22:40.086Z,93.83
2018-06-28T08:25:13.911Z,93.51
2018-06-28T08:27:48.030Z,93.10
2018-06-28T08:30:21.998Z,92.77
2018-06-28T08:32:55.993Z,91.70
2018-06-28T08:35:29.938Z,93.43
2018-06-28T08:38:03.948Z,93.42
2018-06-28T08:40:37.902Z,93.53
2018-06-28T08:57:51.067Z,86.31
2018-06-28T09:00:25.070Z,86.44
2018-06-28T09:02:59.878Z,87.00
2018-06-28T09:05:34.218Z,86.53
2018-06-28T09:08:08.310Z,87.72
2018-06-28T09:10:43.295Z,88.62
2018-06-28T09:13:18.460Z,87.90
2018-06-28T09:15:52.586Z,88.52
2018-06-28T09:18:26.645Z,87.66
2018-06-28T09:21:00.739Z,85.60
2018-06-28T09:23:35.865Z,84.03
2018-06-28T09:26:09.770Z,84.61
2018-06-28T09:28:44.010Z,79.97
2018-06-28T09:31:18.136Z,78.21
2018-06-28T09:33:52.216Z,78.81
2018-06-28T09:36:26.304Z,73.75
2018-06-28T09:39:00.493Z,79.30
2018-06-28T09:41:34.600Z,77.19
2018-06-28T09:44:08.917Z,77.81
2018-06-28T09:46:43.241Z,78.81
2018-06-28T09:49:17.461Z,77.96
2018-06-28T09:51:51.381Z,76.34
2018-06-28T09:54:25.782Z,80.30
2018-06-28T09:56:59.995Z,78.34
2018-06-28T09:59:39.695Z,74.67
2018-06-28T10:02:14.053Z,78.73
2018-06-28T10:04:48.234Z,77.29
2018-06-28T10:07:22.401Z,77.99
2018-06-28T10:09:56.503Z,76.93
2018-06-28T10:12:30.601Z,70.47
2018-06-28T10:15:05.076Z,72.07
2018-06-28T10:17:39.386Z,73.75
2018-06-28T10:20:13.607Z,72.89
2018-06-28T10:22:47.983Z,74.46
2018-06-28T10:25:22.730Z,72.54
2018-06-28T10:27:56.749Z,72.90
2018-06-28T10:30:31.007Z,70.95
2018-06-28T10:33:05.065Z,69.50
2018-06-28T10:35:39.200Z,71.97
2018-06-28T10:38:13.533Z,65.97
2018-06-28T10:40:47.791Z,61.31
2018-06-28T10:43:22.564Z,58.37
2018-06-28T10:45:56.713Z,61.01
2018-06-28T10:48:31.107Z,63.18
2018-06-28T10:51:05.834Z,61.53
2018-06-28T10:53:39.818Z,62.34
2018-06-28T10:56:13.830Z,61.13
2018-06-28T10:58:47.828Z,56.12
2018-06-28T11:01:22.153Z,60.03
2018-06-28T11:03:56.170Z,55.56
2018-06-28T11:06:30.211Z,58.24
2018-06-28T11:09:07.728Z,54.21
2018-06-28T11:11:41.978Z,56.94
2018-06-28T11:14:16.245Z,53.79
2018-06-28T11:16:50.393Z,51.74
2018-06-28T11:19:24.312Z,52.18
2018-06-28T11:21:59.130Z,53.91
2018-06-28T11:24:33.230Z,53.86
2018-06-28T11:27:07.303Z,52.50
2018-06-28T11:29:41.550Z,50.91
2018-06-28T11:32:15.756Z,52.81
2018-06-28T11:34:50.190Z,52.22
2018-06-28T11:37:24.738Z,52.51
2018-06-28T11:39:58.721Z,53.90
2018-06-28T11:42:32.701Z,52.67
2018-06-28T11:45:06.950Z,52.78
2018-06-28T11:47:35.073Z,51.78
2018-06-28T11:50:03.324Z,50.14
2018-06-28T11:52:32.143Z,54.79
2018-06-28T11:55:00.229Z,55.30
2018-06-28T11:57:28.423Z,53.30
2018-06-28T11:59:56.428Z,54.29
2018-06-28T12:02:24.664Z,52.00
2018-06-28T12:04:52.679Z,55.13
2018-06-28T12:07:20.814Z,55.46
2018-06-28T12:09:48.962Z,54.17
2018-06-28T12:12:16.963Z,55.91
2018-06-28T12:14:45.124Z,55.97
2018-06-28T12:17:13.581Z,56.52
2018-06-28T12:19:41.629Z,55.23
2018-06-28T12:22:09.711Z,55.51
2018-06-28T12:24:37.945Z,53.96
2018-06-28T12:27:07.748Z,58.29
2018-06-28T12:29:35.842Z,58.00
2018-06-28T12:32:04.299Z,56.58
2018-06-28T12:34:33.587Z,54.18
2018-06-28T12:37:01.981Z,55.83
2018-06-28T12:39:33.003Z,54.94
2018-06-28T12:42:01.044Z,58.38
2018-06-28T12:44:29.621Z,56.71
2018-06-28T12:49:05.204Z,56.88
2018-06-28T12:51:44.646Z,57.30
2018-06-28T12:54:13.192Z,57.78
2018-06-28T12:56:42.455Z,55.82
2018-06-28T12:59:11.808Z,55.13
2018-06-28T13:01:39.884Z,55.01
2018-06-28T13:04:08.798Z,55.46
2018-06-28T13:06:36.800Z,55.96
2018-06-28T13:09:08.592Z,58.02
2018-06-28T13:11:37.615Z,58.07
2018-06-28T13:14:05.680Z,56.54
2018-06-28T13:16:34.155Z,57.53
2018-06-28T13:19:02.469Z,58.24
2018-06-28T13:21:30.655Z,59.20
2018-06-28T13:23:58.894Z,57.32
2018-06-28T13:26:27.435Z,56.28
2018-06-28T13:28:55.520Z,57.37
2018-06-28T13:31:23.717Z,56.05
2018-06-28T13:33:52.490Z,54.87
2018-06-28T13:36:20.492Z,53.82
2018-06-28T13:38:48.528Z,55.25
2018-06-28T13:41:17.635Z,56.51
2018-06-28T13:43:45.678Z,56.81
2018-06-28T13:46:14.022Z,55.15
2018-06-28T13:48:42.092Z,55.87
2018-06-28T13:51:10.067Z,55.22
2018-06-28T13:53:38.849Z,52.28
2018-06-28T13:56:06.939Z,53.26
2018-06-28T13:58:35.844Z,53.86
2018-06-28T14:01:04.139Z,54.16
2018-06-28T14:03:32.262Z,56.76
2018-06-28T14:06:00.436Z,55.74
2018-06-28T14:08:29.387Z,57.25
2018-06-28T14:10:57.417Z,55.22
2018-06-28T14:13:25.393Z,57.42
2018-06-28T14:15:53.706Z,57.46
2018-06-28T14:18:21.712Z,59.04
2018-06-28T14:20:50.038Z,59.23
2018-06-28T14:23:18.397Z,61.69
2018-06-28T14:25:47.760Z,61.18
2018-06-28T14:28:15.769Z,62.34
2018-06-28T14:30:43.808Z,63.47
2018-06-28T14:33:11.976Z,63.03
2018-06-28T14:35:39.978Z,62.88
2018-06-28T14:38:08.784Z,63.78
2018-06-28T14:40:36.899Z,62.60
2018-06-28T14:43:05.185Z,60.74
2018-06-28T14:45:33.284Z,61.59
2018-06-28T14:48:01.610Z,61.97
2018-06-28T14:50:29.791Z,62.00
2018-06-28T14:53:01.094Z,61.95
2018-06-28T14:55:30.094Z,60.92
2018-06-28T14:57:58.079Z,61.60
2018-06-28T15:00:29.709Z,62.53
2018-06-28T15:02:58.598Z,62.74
2018-06-28T15:05:26.876Z,62.54
2018-06-28T15:07:55.323Z,63.19
2018-06-28T15:10:23.613Z,63.39
2018-06-28T15:12:53.678Z,65.20
2018-06-28T15:15:22.646Z,64.03
2018-06-28T15:17:51.644Z,62.76
2018-06-28T15:20:19.666Z,63.71
2018-06-28T15:22:47.809Z,62.08
2018-06-28T15:25:21.998Z,63.78
2018-06-28T15:27:54.018Z,64.15
2018-06-28T15:30:25.493Z,62.09
2018-06-28T15:32:53.916Z,62.01
2018-06-28T15:35:22.037Z,61.05
2018-06-28T15:37:50.162Z,61.69
2018-06-28T15:40:18.566Z,63.07
2018-06-28T15:42:47.285Z,63.10
2018-06-28T15:45:15.359Z,62.43
2018-06-28T15:47:43.951Z,61.85
2018-06-28T15:50:12.546Z,62.41
2018-06-28T15:52:41.596Z,64.07
2018-06-28T15:55:10.782Z,62.88
2018-06-28T15:57:38.907Z,65.98
2018-06-28T16:00:07.755Z,63.90
2018-06-28T16:02:35.866Z,62.75
2018-06-28T16:05:04.854Z,65.03
2018-06-28T16:07:34.048Z,68.30
2018-06-28T16:10:02.667Z,67.20
2018-06-28T16:12:30.754Z,68.14
2018-06-28T16:14:58.760Z,66.78
2018-06-28T16:17:27.395Z,65.57
2018-06-28T16:19:55.595Z,67.48
2018-06-28T16:22:24.876Z,69.94
2018-06-28T16:24:53.123Z,71.32
2018-06-28T16:27:21.238Z,72.11
2018-06-28T16:29:49.283Z,72.14
2018-06-28T16:32:17.515Z,71.43
2018-06-28T16:34:45.568Z,72.62
2018-06-28T16:37:13.646Z,72.28
2018-06-28T16:39:41.630Z,71.81
2018-06-28T16:42:10.026Z,72.89
2018-06-28T16:44:38.029Z,74.26
2018-06-28T16:47:10.071Z,73.11
2018-06-28T16:49:39.301Z,72.85
2018-06-28T16:52:08.932Z,73.50
2018-06-28T16:54:36.903Z,73.54
2018-06-28T16:57:05.877Z,75.35
2018-06-28T16:59:34.226Z,76.69
2018-06-28T17:02:02.221Z,78.82
2018-06-28T17:04:30.524Z,78.63
2018-06-28T17:06:58.507Z,79.82
2018-06-28T17:09:27.003Z,77.89
2018-06-28T17:11:56.046Z,79.10
2018-06-28T17:14:24.412Z,79.64
2018-06-28T17:16:53.634Z,78.29
2018-06-28T17:19:21.752Z,78.92
2018-06-28T17:21:51.057Z,79.43
2018-06-28T17:24:20.371Z,81.29
2018-06-28T17:26:48.907Z,81.29
2018-06-28T17:29:17.146Z,79.11
2018-06-28T17:31:45.645Z,79.05
2018-06-28T17:34:13.875Z,80.11
2018-06-28T17:36:41.989Z,82.67
2018-06-28T17:39:10.155Z,80.51
2018-06-28T17:41:38.796Z,80.25
2018-06-28T17:44:07.013Z,79.98
2018-06-28T17:46:35.402Z,83.39
2018-06-28T17:49:03.733Z,81.23
2018-06-28T17:51:32.094Z,81.75
2018-06-28T17:54:00.113Z,83.50
2018-06-28T17:56:28.468Z,85.13
2018-06-28T17:58:57.464Z,85.97
2018-06-28T18:01:25.432Z,87.68
2018-06-28T18:03:53.532Z,87.47
2018-06-28T18:06:21.572Z,85.85
2018-06-28T18:08:49.713Z,81.71
2018-06-28T18:11:17.898Z,85.40
2018-06-28T18:13:46.062Z,86.40
2018-06-28T18:16:14.130Z,86.01
2018-06-28T18:18:42.269Z,86.84
2018-06-28T18:21:11.606Z,87.09
2018-06-28T18:23:40.050Z,84.85
2018-06-28T18:26:09.556Z,85.06
2018-06-28T18:28:37.866Z,86.88
2018-06-28T18:31:06.911Z,88.26
2018-06-28T18:33:34.970Z,85.85
2018-06-28T18:36:03.691Z,81.37
2018-06-28T18:38:31.787Z,84.20
2018-06-28T18:40:59.973Z,84.65
2018-06-28T18:43:28.014Z,85.99
2018-06-28T18:45:56.079Z,85.19
2018-06-28T18:48:25.186Z,86.26
2018-06-28T18:50:53.802Z,87.21
2018-06-28T18:53:22.837Z,85.41
2018-06-28T18:55:50.948Z,81.52
2018-06-28T18:58:19.134Z,82.80
2018-06-28T19:00:51.228Z,83.36
2018-06-28T19:03:19.410Z,82.40
2018-06-28T19:05:48.205Z,81.50
2018-06-28T19:08:16.911Z,79.69
2018-06-28T19:10:51.022Z,80.05
2018-06-28T19:13:19.073Z,79.96
2018-06-28T19:15:53.091Z,81.28
2018-06-28T19:18:21.356Z,80.50
2018-06-28T19:20:55.512Z,81.27
2018-06-28T19:23:28.942Z,81.83
2018-06-28T19:25:57.070Z,82.42
2018-06-28T19:28:26.610Z,82.37
2018-06-28T19:31:00.449Z,83.37
2018-06-28T19:33:29.167Z,83.96
2018-06-28T19:35:57.455Z,84.56
2018-06-28T19:38:30.070Z,82.92
2018-06-28T19:41:03.861Z,85.13
2018-06-28T19:43:32.015Z,85.41
2018-06-28T19:46:00.383Z,84.48
2018-06-28T19:48:28.475Z,83.51
2018-06-28T19:51:05.447Z,82.73
2018-06-28T19:53:35.400Z,84.33
2018-06-28T19:56:03.802Z,85.03
2018-06-28T19:58:31.908Z,84.03
2018-06-28T20:01:11.543Z,85.51
2018-06-28T20:03:51.311Z,85.61
2018-06-28T20:06:27.129Z,84.26
2018-06-28T20:09:01.317Z,85.57
2018-06-28T20:11:36.294Z,84.56
2018-06-28T20:14:16.186Z,85.60
2018-06-28T20:16:55.880Z,85.46
2018-06-28T20:19:35.295Z,84.16
2018-06-28T20:22:09.849Z,85.70
2018-06-28T20:24:45.795Z,85.31
2018-06-28T20:27:26.549Z,86.21
2018-06-28T20:30:06.561Z,87.16
2018-06-28T20:32:51.933Z,86.53
2018-06-28T20:35:34.904Z,88.08
2018-06-28T20:38:10.265Z,86.89
2018-06-28T20:40:54.293Z,88.26
2018-06-28T20:43:29.068Z,88.34
2018-06-28T20:46:07.210Z,88.92
2018-06-28T20:48:42.772Z,88.54
2018-06-28T20:51:18.923Z,88.81
2018-06-28T20:53:53.815Z,88.47
2018-06-28T20:56:29.185Z,87.87
2018-06-28T20:59:03.569Z,86.54
2018-06-28T21:01:37.746Z,86.79
2018-06-28T21:04:11.795Z,86.43
2018-06-28T21:06:45.982Z,87.48
2018-06-28T21:09:20.123Z,86.09
2018-06-28T21:11:55.218Z,86.91
2018-06-28T21:14:29.404Z,86.90
2018-06-28T21:17:03.623Z,86.46
2018-06-28T21:19:37.899Z,87.75
2018-06-28T21:22:12.877Z,87.94
2018-06-28T21:24:46.789Z,87.45
2018-06-28T21:27:20.840Z,87.84
2018-06-28T21:29:55.004Z,87.46
2018-06-28T21:32:29.085Z,87.81
2018-06-28T21:35:03.270Z,88.05
2018-06-28T21:37:37.450Z,87.96
2018-06-28T21:40:11.669Z,88.16
2018-06-28T21:42:45.787Z,88.25
2018-06-28T21:45:20.281Z,87.24
2018-06-28T21:47:54.434Z,88.13
2018-06-28T21:50:28.918Z,88.70
2018-06-28T21:55:42.853Z,88.88
2018-06-28T21:58:16.916Z,90.48
2018-06-28T22:00:51.020Z,90.81
2018-06-28T22:03:25.006Z,90.96
2018-06-28T22:05:59.353Z,91.07
2018-06-28T22:08:34.079Z,91.48
2018-06-28T22:11:08.224Z,90.21
2018-06-28T22:13:43.075Z,89.64
2018-06-28T22:16:17.227Z,89.36
2018-06-28T22:18:52.389Z,89.21
2018-06-28T22:21:26.559Z,89.83
2018-06-28T22:24:00.563Z,90.29
2018-06-28T22:26:34.983Z,90.76
2018-06-28T22:29:09.066Z,91.50
2018-06-28T22:31:43.671Z,90.32
2018-06-28T22:34:18.131Z,90.59
2018-06-28T22:36:52.259Z,89.32
2018-06-28T22:39:26.266Z,87.67
2018-06-28T22:42:00.736Z,87.49
2018-06-28T22:44:34.741Z,87.96
2018-06-28T22:47:08.875Z,88.03
2018-06-28T22:49:42.843Z,87.89
2018-06-28T22:52:17.927Z,86.84
2018-06-28T22:54:52.038Z,87.42
2018-06-28T22:57:26.114Z,87.26
2018-06-28T23:00:01.457Z,89.30
2018-06-28T23:02:35.483Z,89.10
2018-06-28T23:05:09.410Z,90.82
2018-06-28T23:07:44.772Z,91.19
2018-06-28T23:10:19.138Z,90.47
2018-06-28T23:12:53.326Z,89.74
2018-06-28T23:15:27.410Z,90.90
2018-06-28T23:18:01.584Z,89.71
2018-06-28T23:20:38.967Z,90.70
2018-06-28T23:23:13.134Z,91.38
2018-06-28T23:25:47.179Z,89.40
2018-06-28T23:28:21.678Z,89.56
2018-06-28T23:30:55.927Z,87.97
2018-06-28T23:33:31.974Z,87.61
2018-06-28T23:36:06.085Z,87.25
2018-06-28T23:38:41.354Z,87.86
2018-06-28T23:41:15.472Z,87.24
2018-06-28T23:43:49.685Z,87.73
2018-06-28T23:46:23.617Z,87.67
2018-06-28T23:48:57.644Z,87.22
2018-06-28T23:51:31.688Z,88.01
2018-06-28T23:54:07.021Z,88.14
2018-06-28T23:56:41.489Z,88.85
2018-06-28T23:59:15.733Z,88.71
